Date,TemperatureHighF,TemperatureAvgF,TemperatureLowF,DewpointHighF,DewpointAvgF,DewpointLowF,HumidityHigh,HumidityAvg,HumidityLow,PressureMaxIn,PressureMinIn,WindSpeedMaxMPH,WindSpeedAvgMPH,GustSpeedMaxMPH,PrecipitationSumIn
2013-3-1,74.7,57.1,43.1,48.0,42.3,36.2,79,60,38,30.40,30.22,16,0,16,0.00
2013-3-2,70.4,58.8,48.3,49.6,45.8,41.5,78,63,43,30.23,30.03,13,0,13,0.00
2013-3-3,63.9,57.1,50.3,53.0,48.0,43.9,79,71,63,30.06,29.98,26,0,26,0.00
2013-3-4,65.6,52.7,44.0,51.2,44.8,39.8,88,75,56,30.12,29.99,13,1,13,0.00
2013-3-5,64.3,51.7,43.4,42.5,40.1,36.7,80,66,39,30.03,29.83,26,1,26,0.06
2013-3-6,56.7,50.0,45.6,43.3,40.1,35.8,88,70,48,30.06,29.84,28,3,28,0.21
2013-3-7,58.2,49.1,39.8,41.4,38.5,34.8,84,68,46,30.00,29.84,26,1,26,0.00
2013-3-8,67.2,51.1,38.9,42.8,38.4,33.8,83,64,34,30.02,29.79,23,1,23,0.00
2013-3-9,69.2,53.4,40.7,44.2,36.8,30.5,83,58,26,30.26,30.01,46,3,46,0.00
2013-3-10,66.6,52.8,40.2,45.1,39.1,31.9,75,61,43,30.35,30.23,17,0,17,0.00
2013-3-11,73.8,56.4,42.9,47.2,42.5,37.5,82,62,34,30.25,30.06,17,0,17,0.00
2013-3-12,77.1,59.7,45.2,49.5,45.1,39.4,81,61,36,30.15,30.02,17,0,17,0.00
2013-3-13,78.3,62.2,48.8,53.5,48.0,43.3,82,62,39,30.16,30.03,18,0,18,0.00
2013-3-14,70.4,63.3,57.3,52.6,51.4,49.5,76,65,50,30.06,30.02,3,0,3,0.00
2013-3-15,76.4,60.9,49.5,52.9,47.8,44.4,84,65,37,30.08,29.97,20,1,20,0.00
2013-3-16,76.7,60.0,46.8,51.5,44.5,35.4,83,60,25,30.05,29.94,29,1,29,0.00
2013-3-17,72.0,58.0,45.0,44.5,39.5,36.1,76,53,31,30.11,29.98,28,1,28,0.00
2013-3-18,69.0,56.8,43.6,45.4,40.4,36.8,78,57,35,30.08,29.98,22,1,22,0.00
2013-3-19,71.0,57.8,47.9,50.5,44.4,40.6,86,62,37,30.12,30.03,28,1,28,0.18
2013-3-20,60.5,55.0,51.0,55.4,50.9,47.3,90,86,78,30.09,30.04,18,1,18,0.41
2013-3-21,66.8,54.7,46.1,50.3,42.3,29.9,90,67,30,30.09,29.96,30,2,30,0.00
2013-3-22,66.5,53.2,41.6,42.7,27.6,20.4,100,40,20,30.07,29.98,57,4,57,0.00
2013-3-23,69.0,53.4,40.7,35.4,30.4,26.7,58,44,24,30.13,30.01,21,1,21,0.00
2013-3-24,75.3,57.8,43.8,42.7,38.1,34.5,73,51,26,30.07,29.91,20,0,20,0.00
2013-3-25,70.4,58.5,45.2,49.7,42.7,36.6,100,57,40,29.99,29.86,24,1,24,0.00
2013-3-26,71.7,57.0,45.8,48.8,43.7,39.2,79,63,41,29.98,29.87,16,0,16,0.00
2013-3-27,72.8,58.4,48.6,52.3,46.6,41.3,77,66,46,29.99,29.91,33,1,33,0.00
2013-3-28,69.0,60.3,54.2,51.7,49.4,47.5,80,68,50,30.08,29.99,19,0,19,0.00
2013-3-29,79.8,62.8,48.8,51.2,47.8,43.9,84,61,34,30.08,29.95,22,1,22,0.00
2013-3-30,75.6,62.0,51.3,54.6,48.9,44.6,79,63,42,30.02,29.91,20,0,20,0.00
2013-3-31,71.9,59.7,54.0,54.2,50.5,46.3,89,73,47,30.07,29.94,34,1,34,1.06